Latest Weather Observations for Sheoaks

IDV60901

Issued at 6:41 pm EDT Friday 12 February 2016 (issued every 10 minutes, with the page automatically refreshed every 10 minutes)

About weather observations | Map of Melbourne area stations | Latest observations for Melbourne area | Other Formats
Station Details ID: 087168 Name: SHEOAKS Lat: -37.91 Lon: 144.13 Height: 236.7 m
Data from the previous 72 hours. | See also: Recent months at Sheoaks
Date/Time
EDT
Tmp

°C
App
Tmp
°C
Dew
Point
°C
Rel
Hum
%
Delta-T

°C
Wind Press
QNH
hPa
Press
MSL
hPa
Rain
since
9 am
mm
Dir
 
Spd
km/h
Gust
km/h
Spd
kts
Gust
kts
12/06:30pm 23.8 21.9 13.1 51 6.3 ESE 15 20 8 11 1012.4 1011.6 0.0
12/06:00pm 24.3 22.5 13.2 50 6.5 SE 15 22 8 12 1012.6 1011.8 0.0
12/05:30pm 25.1 23.3 13.3 48 7.0 SE 15 20 8 11 1012.6 1011.8 0.0
12/05:00pm 25.8 24.0 13.3 46 7.4 ESE 15 22 8 12 1012.7 1012.0 0.0
12/04:30pm 25.6 23.0 13.1 46 7.4 SE 19 24 10 13 1013.0 1012.3 0.0
12/04:00pm 25.9 23.3 13.1 45 7.5 SE 19 26 10 14 1013.1 1012.4 0.0
12/03:30pm 26.1 23.3 12.5 42 7.9 SE 19 26 10 14 1013.3 1012.6 0.0
12/03:00pm 25.6 22.3 11.7 42 8.0 ESE 20 28 11 15 1013.7 1013.0 0.0
12/02:30pm 25.5 22.9 12.0 43 7.8 SE 17 26 9 14 1014.1 1013.4 0.0
12/02:00pm 24.6 22.3 11.9 45 7.3 ESE 15 24 8 13 1014.7 1014.0 0.0
12/01:30pm 24.4 22.3 12.4 47 6.9 SE 15 26 8 14 1015.0 1014.3 0.0
12/01:00pm 23.5 21.4 12.5 50 6.3 ESE 15 24 8 13 1015.3 1014.6 0.0
12/12:30pm 23.0 21.3 12.3 51 6.1 ESE 13 24 7 13 1015.5 1014.8 0.0
12/12:00pm 22.3 20.6 12.5 53 5.6 SE 13 20 7 11 1016.0 1015.2 0.0
12/11:30am 21.0 19.3 12.4 58 4.9 E 13 20 7 11 1016.3 1015.5 0.0
12/11:00am 20.5 19.3 12.7 61 4.5 ESE 11 22 6 12 1016.4 1015.7 0.0
12/10:30am 19.5 17.4 12.5 64 4.0 E 15 20 8 11 1016.7 1016.0 0.0
12/10:00am 18.8 16.7 12.3 66 3.7 ENE 15 20 8 11 1016.9 1016.2 0.0
12/09:30am 17.9 16.3 12.8 72 2.9 E 13 20 7 11 1017.1 1016.4 0.0
12/09:00am 17.0 15.4 12.9 77 2.3 E 13 19 7 10 1017.0 1016.3 0.0
12/08:30am 16.1 15.7 13.0 82 1.7 E 7 11 4 6 1016.9 1016.2 0.0
12/08:00am 15.2 14.9 13.4 89 1.0 ENE 7 11 4 6 1016.9 1016.2 0.0
12/07:30am 13.9 13.8 13.3 96 0.3 NE 6 7 3 4 1016.9 1016.2 0.0
12/07:00am 12.2 11.9 11.4 95 0.4 NNE 4 6 2 3 1017.1 1016.4 0.0
12/06:30am 12.1 11.7 11.2 94 0.5 NNE 4 6 2 3 1016.9 1016.2 0.0
12/06:00am 12.7 12.4 11.6 93 0.6 E 4 6 2 3 1016.9 1016.2 0.0
12/05:30am 13.7 14.5 12.6 93 0.6 CALM 0 0 0 0 1016.7 1016.0 0.0
12/05:00am 14.0 14.8 12.6 91 0.8 CALM 0 0 0 0 1016.7 1016.0 0.0
12/04:30am 14.1 14.6 12.7 91 0.8 E 2 2 1 1 1016.6 1015.9 0.0
12/04:00am 14.2 14.6 12.4 89 1.0 ESE 2 4 1 2 1016.8 1016.1 0.0
12/03:30am 14.9 14.7 12.9 88 1.1 ESE 6 6 3 3 1016.9 1016.2 0.0
12/03:00am 15.1 15.7 13.0 87 1.2 SSE 2 6 1 3 1017.3 1016.6 0.0
12/02:30am 15.1 14.9 13.0 87 1.2 SE 6 9 3 5 1017.3 1016.6 0.0
12/02:00am 15.1 14.9 13.0 87 1.2 ESE 6 7 3 4 1017.5 1016.8 0.0
12/01:30am 15.2 14.8 13.1 87 1.2 ESE 7 9 4 5 1017.5 1016.8 0.0
12/01:00am 14.8 14.5 12.8 88 1.1 E 6 7 3 4 1017.9 1017.2 0.0
12/12:30am 15.1 14.9 13.0 87 1.2 E 6 7 3 4 1018.0 1017.3 0.0
12/12:00am 15.2 15.7 12.7 85 1.4 SE 2 4 1 2 1018.5 1017.8 0.0
 
Date/Time
EDT
Tmp

°C
App
Tmp
°C
Dew
Point
°C
Rel
Hum
%
Delta-T

°C
Wind Press
QNH
hPa
Press
MSL
hPa
Rain
since
9 am
mm
Dir
 
Spd
km/h
Gust
km/h
Spd
kts
Gust
kts
11/11:30pm 15.7 15.4 12.6 82 1.7 ESE 6 9 3 5 1018.5 1017.8 0.0
11/11:00pm 16.3 15.9 13.0 81 1.9 SE 7 9 4 5 1018.6 1017.9 0.0
11/10:30pm 16.6 15.8 12.9 79 2.1 SSE 9 15 5 8 1018.7 1018.0 0.0
11/10:00pm 16.7 15.2 13.0 79 2.1 SE 13 19 7 10 1018.5 1017.8 0.0
11/09:30pm 16.8 15.5 12.5 76 2.4 SSE 11 17 6 9 1018.3 1017.6 0.0
11/09:00pm 17.4 16.5 12.5 73 2.7 SSE 9 13 5 7 1018.0 1017.3 0.0
11/08:30pm 18.0 16.3 12.5 70 3.1 SSE 13 19 7 10 1017.4 1016.7 0.0
11/08:00pm 18.7 16.2 12.2 66 3.6 SE 17 24 9 13 1016.7 1016.0 0.0
11/07:30pm 19.7 17.4 11.7 60 4.5 SSE 15 26 8 14 1016.7 1016.0 0.0
11/07:00pm 20.4 17.5 11.1 55 5.2 SSE 17 24 9 13 1016.6 1015.9 0.0
11/06:30pm 21.2 18.4 11.2 53 5.6 SE 17 26 9 14 1016.5 1015.8 0.0
11/06:00pm 22.5 19.7 11.3 49 6.3 ESE 17 24 9 13 1016.2 1015.4 0.0
11/05:30pm 22.2 18.8 10.7 48 6.4 SE 19 26 10 14 1016.1 1015.3 0.0
11/05:00pm 22.8 19.1 10.3 45 6.9 SE 20 32 11 17 1016.0 1015.2 0.0
11/04:30pm 23.0 19.7 10.8 46 6.8 SE 19 26 10 14 1016.1 1015.3 0.0
11/04:00pm 23.1 19.5 10.5 45 7.0 ESE 20 39 11 21 1016.2 1015.4 0.0
11/03:30pm 24.2 21.2 10.5 42 7.7 SSE 17 33 9 18 1016.3 1015.5 0.0
11/03:00pm 24.1 21.1 10.7 43 7.5 SE 17 30 9 16 1016.2 1015.4 0.0
11/02:30pm 24.0 21.8 10.7 43 7.5 SSE 13 24 7 13 1016.2 1015.4 0.0
11/02:00pm 23.2 20.5 10.3 44 7.2 SSE 15 32 8 17 1016.5 1015.8 0.0
11/01:30pm 23.2 20.3 10.9 46 6.9 SSE 17 26 9 14 1016.5 1015.8 0.0
11/01:00pm 22.2 20.2 11.6 51 6.0 SE 13 24 7 13 1016.7 1016.0 0.0
11/12:30pm 21.7 19.5 12.0 54 5.5 SSE 15 30 8 16 1016.8 1016.1 0.0
11/12:00pm 21.5 20.0 11.8 54 5.5 SSE 11 17 6 9 1017.3 1016.6 0.0
11/11:30am 21.3 18.8 12.2 56 5.2 SE 17 26 9 14 1017.6 1016.9 0.0
11/11:00am 20.9 18.5 11.3 54 5.4 SE 15 24 8 13 1017.9 1017.2 0.0
11/10:30am 19.5 17.7 11.0 58 4.7 SE 11 17 6 9 1018.0 1017.3 0.0
11/10:00am 18.9 17.3 11.5 62 4.1 SE 11 19 6 10 1018.0 1017.3 0.0
11/09:30am 18.9 16.6 11.9 64 3.9 ESE 15 20 8 11 1017.9 1017.2 0.0
11/09:00am 17.5 17.0 12.6 73 2.7 SE 7 13 4 7 1018.0 1017.3 896.0
11/08:30am 15.8 15.4 12.5 81 1.8 SE 6 7 3 4 1017.9 1017.2 -
11/08:00am 14.1 14.7 12.0 87 1.1 CALM 0 2 0 1 1017.7 1017.0 -
11/07:30am 13.6 14.0 11.3 86 1.2 CALM 0 0 0 0 1017.6 1016.9 -
11/07:00am 14.0 14.6 11.9 87 1.1 CALM 0 0 0 0 1017.2 1016.5 -
11/06:30am 14.0 14.4 11.3 84 1.5 CALM 0 0 0 0 1016.9 1016.2 -
11/06:00am 14.1 14.7 11.8 86 1.2 CALM 0 0 0 0 1016.6 1015.9 -
11/05:30am 13.4 13.8 11.3 87 1.1 CALM 0 0 0 0 1016.4 1015.7 -
11/05:00am 12.7 12.6 10.8 88 1.0 NNW 2 4 1 2 1016.3 1015.5 -
11/04:30am 12.3 11.7 10.5 89 0.9 NNW 4 4 2 2 1016.1 1015.3 -
11/04:00am 12.1 11.5 10.5 90 0.8 NNW 4 6 2 3 1016.2 1015.4 -
11/03:30am 12.0 11.5 10.7 92 0.7 N 4 6 2 3 1016.2 1015.4 -
11/03:00am 11.6 10.9 10.2 91 0.7 N 4 6 2 3 1016.4 1015.7 0.0
11/02:30am 12.1 12.3 10.5 90 0.8 CALM 0 0 0 0 1016.6 1015.9 -
11/02:00am 12.4 12.2 10.6 89 0.9 NE 2 4 1 2 1016.9 1016.2 -
11/01:30am 12.8 12.7 10.9 88 1.0 NE 2 2 1 1 1017.0 1016.3 -
11/01:00am 13.1 13.1 11.0 87 1.1 ENE 2 4 1 2 1017.1 1016.4 -
11/12:30am 13.9 13.6 11.4 85 1.3 ENE 4 4 2 2 1017.3 1016.6 -
11/12:00am 14.3 14.0 11.5 83 1.5 E 4 6 2 3 1017.3 1016.6 -
 
Date/Time
EDT
Tmp

°C
App
Tmp
°C
Dew
Point
°C
Rel
Hum
%
Delta-T

°C
Wind Press
QNH
hPa
Press
MSL
hPa
Rain
since
9 am
mm
Dir
 
Spd
km/h
Gust
km/h
Spd
kts
Gust
kts
10/11:30pm 14.8 14.5 11.6 81 1.7 ESE 4 4 2 2 1017.4 1016.7 -
10/11:00pm 15.1 14.9 11.7 80 1.9 ESE 4 6 2 3 1017.5 1016.8 -
10/10:30pm 15.4 15.2 11.8 79 2.0 SE 4 6 2 3 1017.5 1016.8 -
10/10:00pm 15.9 15.2 12.1 78 2.1 SE 7 11 4 6 1017.2 1016.5 -
10/09:30pm 16.5 15.1 12.3 76 2.3 SE 11 15 6 8 1017.0 1016.3 -
10/09:00pm 16.9 15.1 12.0 73 2.7 SE 13 17 7 9 1016.7 1016.0 -
10/08:30pm 17.6 15.4 12.1 70 3.1 SE 15 22 8 12 1016.4 1015.7 -
10/08:00pm 18.8 16.2 12.1 65 3.8 ESE 17 22 9 12 1016.1 1015.3 -
10/07:30pm 20.1 17.5 12.1 60 4.5 ESE 17 24 9 13 1015.5 1014.8 -
10/07:00pm 21.4 18.3 12.3 56 5.2 SE 20 26 11 14 1015.1 1014.4 -
10/06:30pm 22.9 19.7 11.9 50 6.3 ESE 20 26 11 14 1014.8 1014.1 -
10/06:00pm 23.8 21.1 11.8 47 6.9 ESE 17 24 9 13 1014.6 1013.9 -
10/05:30pm 24.1 21.5 12.1 47 6.9 SE 17 26 9 14 1014.5 1013.8 -
10/05:00pm 25.1 22.1 12.0 44 7.6 ESE 19 26 10 14 1014.5 1013.8 -
10/04:30pm 25.0 22.7 11.6 43 7.7 SE 15 20 8 11 1014.5 1013.8 -
10/04:00pm 25.5 23.6 11.7 42 7.9 ESE 13 24 7 13 1014.6 1013.9 -
10/03:30pm 25.6 23.6 11.4 41 8.1 E 13 24 7 13 1014.7 1014.0 -
10/01:00pm 24.8 23.5 11.4 43 7.6 SSE 9 17 5 9 1016.0 1015.2 0.0
10/12:30pm 22.7 21.2 10.5 46 6.8 SE 9 15 5 8 1016.2 1015.4 0.0
10/12:00pm 21.9 20.8 11.9 53 5.7 SSE 9 17 5 9 1016.5 1015.8 0.0
10/11:30am 21.1 19.6 12.0 56 5.2 SE 11 19 6 10 1016.7 1016.0 0.0
10/11:00am 20.1 19.0 12.1 60 4.5 SE 9 19 5 10 1016.8 1016.1 0.0
10/10:30am 20.4 20.0 12.4 60 4.5 SE 6 15 3 8 1016.7 1016.0 0.0
10/10:00am 19.1 18.6 12.6 66 3.7 ENE 7 13 4 7 1016.8 1016.1 0.0
10/09:30am 17.5 16.9 12.4 72 2.9 ENE 7 15 4 8 1016.9 1016.2 0.0
10/09:00am 16.8 16.8 12.5 76 2.4 E 4 6 2 3 1017.0 1016.3 0.0
10/08:30am 16.3 16.4 12.7 79 2.0 SSW 4 7 2 4 1017.0 1016.3 0.0
10/08:00am 16.0 15.7 12.7 81 1.8 S 6 9 3 5 1016.6 1015.9 0.0
10/07:30am 16.1 15.9 13.0 82 1.7 S 6 9 3 5 1016.4 1015.7 0.0
10/07:00am 16.1 15.9 13.0 82 1.7 SE 6 9 3 5 1015.7 1015.0 0.0
10/06:30am 16.1 15.8 12.7 80 1.9 E 6 7 3 4 1015.8 1015.1 0.0
10/06:00am 16.0 15.5 12.7 81 1.8 ESE 7 11 4 6 1015.6 1014.9 0.0
10/05:30am 16.0 15.7 12.7 81 1.8 E 6 9 3 5 1015.2 1014.5 0.0
10/05:00am 16.0 15.5 12.7 81 1.8 ENE 7 15 4 8 1015.3 1014.6 0.0
10/04:30am 16.0 15.5 12.6 80 1.9 E 7 13 4 7 1015.5 1014.8 0.0
10/04:00am 16.1 15.8 12.8 81 1.8 ESE 6 9 3 5 1016.0 1015.2 0.0
10/03:30am 16.1 15.7 13.0 82 1.7 SE 7 11 4 6 1016.2 1015.4 0.0
10/03:00am 16.1 15.9 13.0 82 1.7 ESE 6 9 3 5 1016.4 1015.7 0.0
10/02:30am 16.0 15.6 12.9 82 1.7 E 7 9 4 5 1016.3 1015.5 0.0
10/02:00am 16.0 15.2 12.9 82 1.7 E 9 17 5 9 1016.8 1016.1 0.0
10/01:30am 16.1 15.8 13.4 84 1.5 ESE 7 11 4 6 1017.2 1016.5 0.0
10/01:00am 15.9 15.6 13.4 85 1.4 E 7 11 4 6 1017.4 1016.7 0.0
10/12:30am 15.8 15.5 13.3 85 1.4 ESE 7 9 4 5 1017.6 1016.9 0.0
10/12:00am 15.6 15.3 13.4 87 1.2 ESE 7 11 4 6 1017.8 1017.1 0.0
 
Date/Time
EDT
Tmp

°C
App
Tmp
°C
Dew
Point
°C
Rel
Hum
%
Delta-T

°C
Wind Press
QNH
hPa
Press
MSL
hPa
Rain
since
9 am
mm
Dir
 
Spd
km/h
Gust
km/h
Spd
kts
Gust
kts
09/11:30pm 14.4 14.0 12.4 88 1.1 E 6 6 3 3 1017.9 1017.2 0.0
09/11:00pm 14.6 14.2 12.5 87 1.2 E 6 6 3 3 1018.2 1017.5 0.0
09/10:30pm 15.2 14.8 12.5 84 1.5 E 6 9 3 5 1018.5 1017.8 0.0
09/10:00pm 15.6 15.0 12.4 81 1.8 ESE 7 11 4 6 1018.4 1017.7 0.0
09/09:30pm 16.3 15.0 12.5 78 2.1 ESE 11 15 6 8 1018.2 1017.5 0.0
09/09:00pm 17.2 15.5 12.3 73 2.7 ESE 13 17 7 9 1018.0 1017.3 0.0
09/08:30pm 18.4 16.7 12.6 69 3.3 ESE 13 19 7 10 1018.0 1017.3 0.0
09/08:00pm 20.0 18.3 12.3 61 4.4 ESE 13 19 7 10 1018.0 1017.3 0.0
09/07:30pm 21.1 18.9 12.0 56 5.2 ESE 15 19 8 10 1017.9 1017.2 0.0
09/07:00pm 22.0 19.7 11.7 52 5.8 SE 15 20 8 11 1017.8 1017.1 0.0

Latest Capital City Observations: Canberra | Sydney | Melbourne | Brisbane | Adelaide | Perth | Hobart | Darwin

Other Formats:

Comma delimited format used in spreadsheet applications
http://www.bom.gov.au/fwo/IDV60901/IDV60901.94863.axf

JavaScript Object Notation format (JSON) in row-major order
http://www.bom.gov.au/fwo/IDV60901/IDV60901.94863.json